sensor_id;sensor_type;location;lat;lon;timestamp;P1;durP1;ratioP1;P2;durP2;ratioP2
61635;SDS011;59438;45.014;39.006;2023-05-23T00:00:27;8.82;;;4.53;;
61635;SDS011;59438;45.014;39.006;2023-05-23T00:02:54;8.93;;;4.18;;
61635;SDS011;59438;45.014;39.006;2023-05-23T00:05:20;7.88;;;4.50;;
61635;SDS011;59438;45.014;39.006;2023-05-23T00:07:46;4.88;;;4.15;;
61635;SDS011;59438;45.014;39.006;2023-05-23T00:10:13;6.25;;;4.28;;
61635;SDS011;59438;45.014;39.006;2023-05-23T00:12:40;4.90;;;3.95;;
61635;SDS011;59438;45.014;39.006;2023-05-23T00:15:07;7.00;;;4.35;;
61635;SDS011;59438;45.014;39.006;2023-05-23T00:17:34;6.90;;;4.10;;
61635;SDS011;59438;45.014;39.006;2023-05-23T00:20:01;6.60;;;4.28;;
61635;SDS011;59438;45.014;39.006;2023-05-23T00:22:27;8.45;;;4.13;;
61635;SDS011;59438;45.014;39.006;2023-05-23T00:24:54;7.25;;;4.32;;
61635;SDS011;59438;45.014;39.006;2023-05-23T00:27:20;6.30;;;4.13;;
61635;SDS011;59438;45.014;39.006;2023-05-23T00:29:48;7.03;;;4.10;;
61635;SDS011;59438;45.014;39.006;2023-05-23T00:32:14;9.75;;;4.13;;
61635;SDS011;59438;45.014;39.006;2023-05-23T00:34:41;6.03;;;4.13;;
61635;SDS011;59438;45.014;39.006;2023-05-23T00:37:07;11.57;;;4.45;;
61635;SDS011;59438;45.014;39.006;2023-05-23T00:39:33;5.82;;;4.05;;
61635;SDS011;59438;45.014;39.006;2023-05-23T00:42:02;4.75;;;4.13;;
61635;SDS011;59438;45.014;39.006;2023-05-23T00:44:29;7.47;;;4.43;;
61635;SDS011;59438;45.014;39.006;2023-05-23T00:46:57;6.78;;;4.25;;
61635;SDS011;59438;45.014;39.006;2023-05-23T00:49:24;8.43;;;4.20;;
61635;SDS011;59438;45.014;39.006;2023-05-23T00:51:51;8.13;;;4.38;;
61635;SDS011;59438;45.014;39.006;2023-05-23T00:54:17;5.88;;;4.30;;
61635;SDS011;59438;45.014;39.006;2023-05-23T00:56:48;7.50;;;4.20;;
61635;SDS011;59438;45.014;39.006;2023-05-23T00:59:15;6.72;;;4.10;;
61635;SDS011;59438;45.014;39.006;2023-05-23T01:01:42;7.47;;;4.55;;
61635;SDS011;59438;45.014;39.006;2023-05-23T01:04:10;5.05;;;4.05;;
61635;SDS011;59438;45.014;39.006;2023-05-23T01:06:37;6.38;;;4.60;;
61635;SDS011;59438;45.014;39.006;2023-05-23T01:09:03;9.68;;;4.57;;
61635;SDS011;59438;45.014;39.006;2023-05-23T01:11:32;6.50;;;4.65;;
61635;SDS011;59438;45.014;39.006;2023-05-23T01:14:06;6.22;;;4.00;;
61635;SDS011;59438;45.014;39.006;2023-05-23T01:16:40;5.97;;;4.50;;
61635;SDS011;59438;45.014;39.006;2023-05-23T01:19:16;5.68;;;4.10;;
61635;SDS011;59438;45.014;39.006;2023-05-23T01:22:07;6.15;;;4.18;;
61635;SDS011;59438;45.014;39.006;2023-05-23T01:24:42;12.07;;;4.82;;
61635;SDS011;59438;45.014;39.006;2023-05-23T01:27:21;6.90;;;4.50;;
61635;SDS011;59438;45.014;39.006;2023-05-23T01:29:57;7.03;;;4.80;;
61635;SDS011;59438;45.014;39.006;2023-05-23T01:32:26;5.95;;;4.47;;
61635;SDS011;59438;45.014;39.006;2023-05-23T01:34:54;7.38;;;4.32;;
61635;SDS011;59438;45.014;39.006;2023-05-23T01:37:21;7.40;;;4.63;;
61635;SDS011;59438;45.014;39.006;2023-05-23T01:39:47;10.68;;;4.63;;
61635;SDS011;59438;45.014;39.006;2023-05-23T01:42:13;7.43;;;3.95;;
61635;SDS011;59438;45.014;39.006;2023-05-23T01:44:40;6.32;;;4.90;;
61635;SDS011;59438;45.014;39.006;2023-05-23T01:47:08;7.57;;;4.85;;
61635;SDS011;59438;45.014;39.006;2023-05-23T01:49:36;8.15;;;4.60;;
61635;SDS011;59438;45.014;39.006;2023-05-23T01:52:04;8.82;;;4.43;;
61635;SDS011;59438;45.014;39.006;2023-05-23T01:54:31;6.20;;;4.47;;
61635;SDS011;59438;45.014;39.006;2023-05-23T01:56:58;8.30;;;4.55;;
61635;SDS011;59438;45.014;39.006;2023-05-23T01:59:26;6.35;;;5.03;;
61635;SDS011;59438;45.014;39.006;2023-05-23T02:01:53;7.65;;;4.82;;
61635;SDS011;59438;45.014;39.006;2023-05-23T02:04:20;7.60;;;5.07;;
61635;SDS011;59438;45.014;39.006;2023-05-23T02:06:47;7.43;;;4.82;;
61635;SDS011;59438;45.014;39.006;2023-05-23T02:09:13;7.38;;;4.82;;
61635;SDS011;59438;45.014;39.006;2023-05-23T02:11:40;7.13;;;4.82;;
61635;SDS011;59438;45.014;39.006;2023-05-23T02:14:06;6.97;;;4.53;;
61635;SDS011;59438;45.014;39.006;2023-05-23T02:16:32;11.85;;;4.78;;
61635;SDS011;59438;45.014;39.006;2023-05-23T02:18:59;10.05;;;4.90;;
61635;SDS011;59438;45.014;39.006;2023-05-23T02:21:26;7.20;;;5.00;;
61635;SDS011;59438;45.014;39.006;2023-05-23T02:23:53;8.68;;;4.93;;
61635;SDS011;59438;45.014;39.006;2023-05-23T02:26:19;5.60;;;4.28;;
61635;SDS011;59438;45.014;39.006;2023-05-23T02:28:45;7.18;;;4.90;;
61635;SDS011;59438;45.014;39.006;2023-05-23T02:31:12;8.68;;;5.00;;
61635;SDS011;59438;45.014;39.006;2023-05-23T02:33:38;8.18;;;5.15;;
61635;SDS011;59438;45.014;39.006;2023-05-23T02:36:04;7.10;;;4.38;;
61635;SDS011;59438;45.014;39.006;2023-05-23T02:38:32;6.10;;;4.28;;
61635;SDS011;59438;45.014;39.006;2023-05-23T02:40:59;9.02;;;5.47;;
61635;SDS011;59438;45.014;39.006;2023-05-23T02:43:25;7.07;;;4.50;;
61635;SDS011;59438;45.014;39.006;2023-05-23T02:45:51;6.30;;;5.30;;
61635;SDS011;59438;45.014;39.006;2023-05-23T02:48:19;9.85;;;5.32;;
61635;SDS011;59438;45.014;39.006;2023-05-23T02:50:45;9.70;;;5.15;;
61635;SDS011;59438;45.014;39.006;2023-05-23T02:53:11;6.63;;;5.00;;
61635;SDS011;59438;45.014;39.006;2023-05-23T02:55:39;8.60;;;4.80;;
61635;SDS011;59438;45.014;39.006;2023-05-23T02:58:05;8.40;;;4.93;;
61635;SDS011;59438;45.014;39.006;2023-05-23T03:00:32;6.57;;;4.72;;
61635;SDS011;59438;45.014;39.006;2023-05-23T03:02:58;14.07;;;5.63;;
61635;SDS011;59438;45.014;39.006;2023-05-23T03:05:24;8.40;;;4.97;;
61635;SDS011;59438;45.014;39.006;2023-05-23T03:07:51;6.65;;;5.03;;
61635;SDS011;59438;45.014;39.006;2023-05-23T03:10:17;12.23;;;5.55;;
61635;SDS011;59438;45.014;39.006;2023-05-23T03:12:45;7.38;;;5.53;;
61635;SDS011;59438;45.014;39.006;2023-05-23T03:15:11;10.40;;;5.22;;
61635;SDS011;59438;45.014;39.006;2023-05-23T03:17:38;7.63;;;5.07;;
61635;SDS011;59438;45.014;39.006;2023-05-23T03:20:04;8.25;;;6.18;;
61635;SDS011;59438;45.014;39.006;2023-05-23T03:22:31;7.60;;;5.65;;
61635;SDS011;59438;45.014;39.006;2023-05-23T03:24:57;9.13;;;5.22;;
61635;SDS011;59438;45.014;39.006;2023-05-23T03:27:24;7.78;;;5.68;;
61635;SDS011;59438;45.014;39.006;2023-05-23T03:29:51;11.10;;;5.68;;
61635;SDS011;59438;45.014;39.006;2023-05-23T03:32:18;10.82;;;5.45;;
61635;SDS011;59438;45.014;39.006;2023-05-23T03:34:44;7.55;;;5.32;;
61635;SDS011;59438;45.014;39.006;2023-05-23T03:37:10;10.07;;;5.43;;
61635;SDS011;59438;45.014;39.006;2023-05-23T03:39:37;6.32;;;5.38;;
61635;SDS011;59438;45.014;39.006;2023-05-23T03:42:03;7.82;;;5.60;;
61635;SDS011;59438;45.014;39.006;2023-05-23T03:44:30;9.02;;;5.60;;
61635;SDS011;59438;45.014;39.006;2023-05-23T03:46:57;7.00;;;5.30;;
61635;SDS011;59438;45.014;39.006;2023-05-23T03:49:24;8.32;;;5.55;;
61635;SDS011;59438;45.014;39.006;2023-05-23T03:51:50;9.52;;;5.45;;
61635;SDS011;59438;45.014;39.006;2023-05-23T03:54:16;10.23;;;6.32;;
61635;SDS011;59438;45.014;39.006;2023-05-23T03:56:43;7.88;;;6.38;;
61635;SDS011;59438;45.014;39.006;2023-05-23T03:59:09;9.68;;;6.57;;
61635;SDS011;59438;45.014;39.006;2023-05-23T04:01:36;9.23;;;6.53;;
61635;SDS011;59438;45.014;39.006;2023-05-23T04:04:03;11.02;;;7.35;;
61635;SDS011;59438;45.014;39.006;2023-05-23T04:06:30;10.82;;;7.15;;
61635;SDS011;59438;45.014;39.006;2023-05-23T04:08:56;12.52;;;7.40;;
61635;SDS011;59438;45.014;39.006;2023-05-23T04:11:22;12.57;;;7.55;;
61635;SDS011;59438;45.014;39.006;2023-05-23T04:13:49;9.35;;;7.43;;
61635;SDS011;59438;45.014;39.006;2023-05-23T04:16:15;14.57;;;8.35;;
61635;SDS011;59438;45.014;39.006;2023-05-23T04:18:41;11.63;;;7.47;;
61635;SDS011;59438;45.014;39.006;2023-05-23T04:21:09;13.15;;;7.28;;
61635;SDS011;59438;45.014;39.006;2023-05-23T04:23:35;12.63;;;8.15;;
61635;SDS011;59438;45.014;39.006;2023-05-23T04:26:02;10.25;;;7.80;;
61635;SDS011;59438;45.014;39.006;2023-05-23T04:28:28;12.43;;;8.48;;
61635;SDS011;59438;45.014;39.006;2023-05-23T04:30:54;10.15;;;7.63;;
61635;SDS011;59438;45.014;39.006;2023-05-23T04:33:21;12.88;;;8.07;;
61635;SDS011;59438;45.014;39.006;2023-05-23T04:35:47;12.60;;;8.10;;
61635;SDS011;59438;45.014;39.006;2023-05-23T04:38:15;10.93;;;7.88;;
61635;SDS011;59438;45.014;39.006;2023-05-23T04:40:41;13.98;;;7.97;;
61635;SDS011;59438;45.014;39.006;2023-05-23T04:43:08;15.05;;;9.10;;
61635;SDS011;59438;45.014;39.006;2023-05-23T04:45:34;9.80;;;8.15;;
61635;SDS011;59438;45.014;39.006;2023-05-23T04:48:01;10.80;;;8.10;;
61635;SDS011;59438;45.014;39.006;2023-05-23T04:50:27;12.13;;;8.93;;
61635;SDS011;59438;45.014;39.006;2023-05-23T04:52:54;12.52;;;8.70;;
61635;SDS011;59438;45.014;39.006;2023-05-23T04:55:21;12.70;;;9.15;;
61635;SDS011;59438;45.014;39.006;2023-05-23T04:57:48;13.30;;;9.07;;
61635;SDS011;59438;45.014;39.006;2023-05-23T05:00:14;13.35;;;8.93;;
61635;SDS011;59438;45.014;39.006;2023-05-23T05:02:41;11.35;;;9.18;;
61635;SDS011;59438;45.014;39.006;2023-05-23T05:05:08;12.73;;;8.43;;
61635;SDS011;59438;45.014;39.006;2023-05-23T05:07:35;14.45;;;8.57;;
61635;SDS011;59438;45.014;39.006;2023-05-23T05:10:01;10.50;;;8.48;;
61635;SDS011;59438;45.014;39.006;2023-05-23T05:12:29;14.02;;;8.52;;
61635;SDS011;59438;45.014;39.006;2023-05-23T05:14:56;11.27;;;8.48;;
61635;SDS011;59438;45.014;39.006;2023-05-23T05:17:22;12.95;;;8.85;;
61635;SDS011;59438;45.014;39.006;2023-05-23T05:19:48;13.50;;;8.30;;
61635;SDS011;59438;45.014;39.006;2023-05-23T05:22:15;12.88;;;8.85;;
61635;SDS011;59438;45.014;39.006;2023-05-23T05:24:41;13.00;;;8.20;;
61635;SDS011;59438;45.014;39.006;2023-05-23T05:27:07;10.32;;;7.40;;
61635;SDS011;59438;45.014;39.006;2023-05-23T05:29:36;11.60;;;7.80;;
61635;SDS011;59438;45.014;39.006;2023-05-23T05:32:02;10.23;;;8.20;;
61635;SDS011;59438;45.014;39.006;2023-05-23T05:34:29;10.80;;;8.15;;
61635;SDS011;59438;45.014;39.006;2023-05-23T05:36:55;13.45;;;8.20;;
61635;SDS011;59438;45.014;39.006;2023-05-23T05:39:23;11.43;;;8.43;;
61635;SDS011;59438;45.014;39.006;2023-05-23T05:41:49;10.15;;;8.45;;
61635;SDS011;59438;45.014;39.006;2023-05-23T05:44:16;11.38;;;8.65;;
61635;SDS011;59438;45.014;39.006;2023-05-23T05:46:43;10.68;;;8.30;;
61635;SDS011;59438;45.014;39.006;2023-05-23T05:49:10;11.48;;;8.77;;
61635;SDS011;59438;45.014;39.006;2023-05-23T05:51:36;12.70;;;8.90;;
61635;SDS011;59438;45.014;39.006;2023-05-23T05:54:02;15.18;;;8.68;;
61635;SDS011;59438;45.014;39.006;2023-05-23T05:56:29;10.65;;;8.43;;
61635;SDS011;59438;45.014;39.006;2023-05-23T05:58:55;10.07;;;8.35;;
61635;SDS011;59438;45.014;39.006;2023-05-23T06:01:21;12.23;;;8.20;;
61635;SDS011;59438;45.014;39.006;2023-05-23T06:03:49;11.93;;;8.15;;
61635;SDS011;59438;45.014;39.006;2023-05-23T06:06:16;11.57;;;8.15;;
61635;SDS011;59438;45.014;39.006;2023-05-23T06:08:42;18.20;;;9.02;;
61635;SDS011;59438;45.014;39.006;2023-05-23T06:11:08;14.43;;;8.98;;
61635;SDS011;59438;45.014;39.006;2023-05-23T06:13:35;13.75;;;10.05;;
61635;SDS011;59438;45.014;39.006;2023-05-23T06:16:01;14.68;;;9.85;;
61635;SDS011;59438;45.014;39.006;2023-05-23T06:18:27;13.88;;;10.02;;
61635;SDS011;59438;45.014;39.006;2023-05-23T06:20:55;16.90;;;10.48;;
61635;SDS011;59438;45.014;39.006;2023-05-23T06:23:21;16.55;;;11.20;;
61635;SDS011;59438;45.014;39.006;2023-05-23T06:25:48;17.80;;;12.32;;
61635;SDS011;59438;45.014;39.006;2023-05-23T06:28:15;16.92;;;12.40;;
61635;SDS011;59438;45.014;39.006;2023-05-23T06:30:41;21.02;;;12.27;;
61635;SDS011;59438;45.014;39.006;2023-05-23T06:33:07;19.17;;;12.45;;
61635;SDS011;59438;45.014;39.006;2023-05-23T06:35:34;24.77;;;13.27;;
61635;SDS011;59438;45.014;39.006;2023-05-23T06:38:02;23.15;;;13.18;;
61635;SDS011;59438;45.014;39.006;2023-05-23T06:40:28;22.23;;;12.93;;
61635;SDS011;59438;45.014;39.006;2023-05-23T06:42:54;17.95;;;11.93;;
61635;SDS011;59438;45.014;39.006;2023-05-23T06:45:21;18.15;;;11.55;;
61635;SDS011;59438;45.014;39.006;2023-05-23T06:47:47;17.35;;;11.07;;
61635;SDS011;59438;45.014;39.006;2023-05-23T06:50:13;17.70;;;11.98;;
61635;SDS011;59438;45.014;39.006;2023-05-23T06:52:40;19.17;;;12.75;;
61635;SDS011;59438;45.014;39.006;2023-05-23T06:55:08;15.05;;;11.25;;
61635;SDS011;59438;45.014;39.006;2023-05-23T06:57:34;16.98;;;10.48;;
61635;SDS011;59438;45.014;39.006;2023-05-23T07:00:01;18.08;;;11.75;;
61635;SDS011;59438;45.014;39.006;2023-05-23T07:02:27;18.27;;;11.52;;
61635;SDS011;59438;45.014;39.006;2023-05-23T07:04:54;17.80;;;11.18;;
61635;SDS011;59438;45.014;39.006;2023-05-23T07:07:20;17.33;;;11.23;;
61635;SDS011;59438;45.014;39.006;2023-05-23T07:09:46;17.08;;;10.98;;
61635;SDS011;59438;45.014;39.006;2023-05-23T07:12:14;17.17;;;10.85;;
61635;SDS011;59438;45.014;39.006;2023-05-23T07:14:40;20.83;;;11.60;;
61635;SDS011;59438;45.014;39.006;2023-05-23T07:17:07;14.57;;;10.30;;
61635;SDS011;59438;45.014;39.006;2023-05-23T07:19:33;17.00;;;11.15;;
61635;SDS011;59438;45.014;39.006;2023-05-23T07:21:59;17.98;;;11.75;;
61635;SDS011;59438;45.014;39.006;2023-05-23T07:24:26;21.83;;;12.18;;
61635;SDS011;59438;45.014;39.006;2023-05-23T07:26:53;19.95;;;11.55;;
61635;SDS011;59438;45.014;39.006;2023-05-23T07:29:20;19.05;;;12.80;;
61635;SDS011;59438;45.014;39.006;2023-05-23T07:31:47;20.10;;;12.82;;
61635;SDS011;59438;45.014;39.006;2023-05-23T07:34:13;18.77;;;12.35;;
61635;SDS011;59438;45.014;39.006;2023-05-23T07:36:39;17.58;;;11.77;;
61635;SDS011;59438;45.014;39.006;2023-05-23T07:39:06;19.00;;;11.98;;
61635;SDS011;59438;45.014;39.006;2023-05-23T07:41:32;15.50;;;11.68;;
61635;SDS011;59438;45.014;39.006;2023-05-23T07:43:59;20.35;;;12.15;;
61635;SDS011;59438;45.014;39.006;2023-05-23T07:46:27;18.45;;;11.40;;
61635;SDS011;59438;45.014;39.006;2023-05-23T07:48:53;13.32;;;10.80;;
61635;SDS011;59438;45.014;39.006;2023-05-23T07:51:19;16.45;;;10.70;;
61635;SDS011;59438;45.014;39.006;2023-05-23T07:53:46;17.65;;;10.20;;
61635;SDS011;59438;45.014;39.006;2023-05-23T07:56:12;14.13;;;9.77;;
61635;SDS011;59438;45.014;39.006;2023-05-23T07:58:38;13.95;;;9.07;;
61635;SDS011;59438;45.014;39.006;2023-05-23T08:01:05;13.00;;;8.88;;
61635;SDS011;59438;45.014;39.006;2023-05-23T08:03:33;15.63;;;8.98;;
61635;SDS011;59438;45.014;39.006;2023-05-23T08:05:59;16.50;;;9.50;;
61635;SDS011;59438;45.014;39.006;2023-05-23T08:08:25;11.50;;;8.80;;
61635;SDS011;59438;45.014;39.006;2023-05-23T08:10:52;11.65;;;9.10;;
61635;SDS011;59438;45.014;39.006;2023-05-23T08:13:18;11.18;;;8.90;;
61635;SDS011;59438;45.014;39.006;2023-05-23T08:15:44;13.70;;;8.98;;
61635;SDS011;59438;45.014;39.006;2023-05-23T08:18:11;10.98;;;8.85;;
61635;SDS011;59438;45.014;39.006;2023-05-23T08:20:38;12.98;;;8.60;;
61635;SDS011;59438;45.014;39.006;2023-05-23T08:23:05;14.68;;;8.93;;
61635;SDS011;59438;45.014;39.006;2023-05-23T08:25:31;13.43;;;8.48;;
61635;SDS011;59438;45.014;39.006;2023-05-23T08:27:57;15.18;;;9.23;;
61635;SDS011;59438;45.014;39.006;2023-05-23T08:30:24;10.32;;;8.65;;
61635;SDS011;59438;45.014;39.006;2023-05-23T08:32:51;15.18;;;9.45;;
61635;SDS011;59438;45.014;39.006;2023-05-23T08:35:18;14.60;;;8.88;;
61635;SDS011;59438;45.014;39.006;2023-05-23T08:37:46;10.00;;;7.53;;
61635;SDS011;59438;45.014;39.006;2023-05-23T08:40:13;8.93;;;7.25;;
61635;SDS011;59438;45.014;39.006;2023-05-23T08:45:09;10.98;;;7.13;;
61635;SDS011;59438;45.014;39.006;2023-05-23T08:47:36;10.70;;;7.28;;
61635;SDS011;59438;45.014;39.006;2023-05-23T08:50:03;10.52;;;7.00;;
61635;SDS011;59438;45.014;39.006;2023-05-23T08:52:31;7.10;;;6.40;;
61635;SDS011;59438;45.014;39.006;2023-05-23T08:55:00;11.30;;;6.93;;
61635;SDS011;59438;45.014;39.006;2023-05-23T08:57:27;9.30;;;6.57;;
61635;SDS011;59438;45.014;39.006;2023-05-23T08:59:53;10.93;;;7.57;;
61635;SDS011;59438;45.014;39.006;2023-05-23T09:02:20;12.45;;;6.75;;
61635;SDS011;59438;45.014;39.006;2023-05-23T09:04:47;10.93;;;7.45;;
61635;SDS011;59438;45.014;39.006;2023-05-23T09:07:14;11.98;;;6.88;;
61635;SDS011;59438;45.014;39.006;2023-05-23T09:09:43;8.40;;;6.60;;
61635;SDS011;59438;45.014;39.006;2023-05-23T09:12:11;10.93;;;6.63;;
61635;SDS011;59438;45.014;39.006;2023-05-23T09:14:38;8.35;;;5.90;;
61635;SDS011;59438;45.014;39.006;2023-05-23T09:17:04;7.47;;;5.05;;
61635;SDS011;59438;45.014;39.006;2023-05-23T09:19:31;12.02;;;5.38;;
61635;SDS011;59438;45.014;39.006;2023-05-23T09:21:57;10.82;;;6.53;;
61635;SDS011;59438;45.014;39.006;2023-05-23T09:24:23;8.30;;;6.20;;
61635;SDS011;59438;45.014;39.006;2023-05-23T09:26:58;9.30;;;5.93;;
61635;SDS011;59438;45.014;39.006;2023-05-23T09:29:26;10.30;;;6.65;;
61635;SDS011;59438;45.014;39.006;2023-05-23T09:31:58;12.88;;;6.13;;
61635;SDS011;59438;45.014;39.006;2023-05-23T09:34:25;8.80;;;6.22;;
61635;SDS011;59438;45.014;39.006;2023-05-23T09:36:53;9.18;;;5.90;;
61635;SDS011;59438;45.014;39.006;2023-05-23T09:39:20;10.48;;;6.18;;
61635;SDS011;59438;45.014;39.006;2023-05-23T09:41:47;13.02;;;6.70;;
61635;SDS011;59438;45.014;39.006;2023-05-23T09:44:13;11.52;;;6.20;;
61635;SDS011;59438;45.014;39.006;2023-05-23T09:46:49;8.82;;;5.85;;
61635;SDS011;59438;45.014;39.006;2023-05-23T09:49:16;11.25;;;5.65;;
61635;SDS011;59438;45.014;39.006;2023-05-23T09:51:42;12.02;;;6.38;;
61635;SDS011;59438;45.014;39.006;2023-05-23T09:54:09;7.65;;;5.18;;
61635;SDS011;59438;45.014;39.006;2023-05-23T09:56:36;6.63;;;4.97;;
61635;SDS011;59438;45.014;39.006;2023-05-23T09:59:05;10.87;;;5.10;;
61635;SDS011;59438;45.014;39.006;2023-05-23T10:01:32;13.20;;;5.47;;
61635;SDS011;59438;45.014;39.006;2023-05-23T10:04:01;7.25;;;5.30;;
61635;SDS011;59438;45.014;39.006;2023-05-23T10:06:30;12.77;;;5.90;;
61635;SDS011;59438;45.014;39.006;2023-05-23T10:09:01;8.30;;;5.30;;
61635;SDS011;59438;45.014;39.006;2023-05-23T10:14:44;9.13;;;4.88;;
61635;SDS011;59438;45.014;39.006;2023-05-23T10:17:17;13.18;;;4.72;;
61635;SDS011;59438;45.014;39.006;2023-05-23T10:19:50;8.05;;;4.18;;
61635;SDS011;59438;45.014;39.006;2023-05-23T10:22:21;11.20;;;4.45;;
61635;SDS011;59438;45.014;39.006;2023-05-23T10:24:49;11.23;;;4.63;;
61635;SDS011;59438;45.014;39.006;2023-05-23T10:27:15;13.15;;;4.38;;
61635;SDS011;59438;45.014;39.006;2023-05-23T10:29:42;11.95;;;4.43;;
61635;SDS011;59438;45.014;39.006;2023-05-23T10:32:09;10.02;;;4.85;;
61635;SDS011;59438;45.014;39.006;2023-05-23T10:34:39;7.95;;;4.40;;
61635;SDS011;59438;45.014;39.006;2023-05-23T10:37:14;15.90;;;5.30;;
61635;SDS011;59438;45.014;39.006;2023-05-23T10:39:48;8.10;;;5.00;;
61635;SDS011;59438;45.014;39.006;2023-05-23T10:42:27;9.70;;;4.68;;
61635;SDS011;59438;45.014;39.006;2023-05-23T10:45:16;10.32;;;3.67;;
61635;SDS011;59438;45.014;39.006;2023-05-23T10:47:42;10.45;;;3.55;;
61635;SDS011;59438;45.014;39.006;2023-05-23T10:50:11;8.90;;;3.28;;
61635;SDS011;59438;45.014;39.006;2023-05-23T10:52:41;13.13;;;4.10;;
61635;SDS011;59438;45.014;39.006;2023-05-23T10:55:18;8.60;;;3.25;;
61635;SDS011;59438;45.014;39.006;2023-05-23T10:57:45;9.40;;;3.13;;
61635;SDS011;59438;45.014;39.006;2023-05-23T11:00:12;6.18;;;2.85;;
61635;SDS011;59438;45.014;39.006;2023-05-23T11:02:45;8.50;;;3.30;;
61635;SDS011;59438;45.014;39.006;2023-05-23T11:05:17;8.00;;;2.90;;
61635;SDS011;59438;45.014;39.006;2023-05-23T11:07:46;7.53;;;3.13;;
61635;SDS011;59438;45.014;39.006;2023-05-23T11:10:31;6.95;;;2.70;;
61635;SDS011;59438;45.014;39.006;2023-05-23T11:13:04;6.43;;;2.67;;
61635;SDS011;59438;45.014;39.006;2023-05-23T11:15:40;9.25;;;2.90;;
61635;SDS011;59438;45.014;39.006;2023-05-23T11:18:06;10.15;;;2.65;;
61635;SDS011;59438;45.014;39.006;2023-05-23T11:20:33;10.85;;;3.10;;
61635;SDS011;59438;45.014;39.006;2023-05-23T11:23:06;7.13;;;2.60;;
61635;SDS011;59438;45.014;39.006;2023-05-23T11:25:39;5.05;;;2.42;;
61635;SDS011;59438;45.014;39.006;2023-05-23T11:28:06;7.78;;;3.00;;
61635;SDS011;59438;45.014;39.006;2023-05-23T11:30:33;7.47;;;2.80;;
61635;SDS011;59438;45.014;39.006;2023-05-23T11:33:00;8.52;;;2.60;;
61635;SDS011;59438;45.014;39.006;2023-05-23T11:35:32;7.40;;;3.00;;
61635;SDS011;59438;45.014;39.006;2023-05-23T11:38:00;9.23;;;2.60;;
61635;SDS011;59438;45.014;39.006;2023-05-23T11:40:29;11.95;;;2.78;;
61635;SDS011;59438;45.014;39.006;2023-05-23T11:42:57;8.57;;;2.85;;
61635;SDS011;59438;45.014;39.006;2023-05-23T11:45:24;7.80;;;2.47;;
61635;SDS011;59438;45.014;39.006;2023-05-23T11:47:50;7.25;;;2.75;;
61635;SDS011;59438;45.014;39.006;2023-05-23T11:50:17;8.48;;;2.58;;
61635;SDS011;59438;45.014;39.006;2023-05-23T11:52:44;9.02;;;2.53;;
61635;SDS011;59438;45.014;39.006;2023-05-23T11:55:12;8.23;;;2.50;;
61635;SDS011;59438;45.014;39.006;2023-05-23T11:57:38;6.55;;;2.42;;
61635;SDS011;59438;45.014;39.006;2023-05-23T12:00:06;7.25;;;2.67;;
61635;SDS011;59438;45.014;39.006;2023-05-23T12:02:37;5.88;;;2.80;;
61635;SDS011;59438;45.014;39.006;2023-05-23T12:05:06;5.82;;;2.75;;
61635;SDS011;59438;45.014;39.006;2023-05-23T12:07:33;8.85;;;2.50;;
61635;SDS011;59438;45.014;39.006;2023-05-23T12:10:00;6.32;;;2.60;;
61635;SDS011;59438;45.014;39.006;2023-05-23T12:12:27;9.70;;;2.97;;
61635;SDS011;59438;45.014;39.006;2023-05-23T12:14:54;10.18;;;3.10;;
61635;SDS011;59438;45.014;39.006;2023-05-23T12:17:21;7.30;;;2.50;;
61635;SDS011;59438;45.014;39.006;2023-05-23T12:19:47;14.52;;;2.78;;
61635;SDS011;59438;45.014;39.006;2023-05-23T12:22:14;4.97;;;2.40;;
61635;SDS011;59438;45.014;39.006;2023-05-23T12:24:47;8.88;;;3.25;;
61635;SDS011;59438;45.014;39.006;2023-05-23T12:27:14;6.18;;;3.03;;
61635;SDS011;59438;45.014;39.006;2023-05-23T12:29:48;8.00;;;2.85;;
61635;SDS011;59438;45.014;39.006;2023-05-23T12:32:15;10.00;;;2.80;;
61635;SDS011;59438;45.014;39.006;2023-05-23T12:34:41;10.77;;;3.17;;
61635;SDS011;59438;45.014;39.006;2023-05-23T12:37:08;8.02;;;2.97;;
61635;SDS011;59438;45.014;39.006;2023-05-23T12:39:35;11.85;;;3.35;;
61635;SDS011;59438;45.014;39.006;2023-05-23T12:42:07;10.18;;;3.90;;
61635;SDS011;59438;45.014;39.006;2023-05-23T12:44:34;6.75;;;3.22;;
61635;SDS011;59438;45.014;39.006;2023-05-23T12:47:03;9.23;;;3.60;;
61635;SDS011;59438;45.014;39.006;2023-05-23T12:49:29;8.50;;;3.53;;
61635;SDS011;59438;45.014;39.006;2023-05-23T12:51:56;12.10;;;3.33;;
61635;SDS011;59438;45.014;39.006;2023-05-23T12:54:22;9.68;;;3.10;;
61635;SDS011;59438;45.014;39.006;2023-05-23T12:56:49;10.98;;;3.47;;
61635;SDS011;59438;45.014;39.006;2023-05-23T12:59:15;11.52;;;3.35;;
61635;SDS011;59438;45.014;39.006;2023-05-23T13:01:41;9.45;;;3.08;;
61635;SDS011;59438;45.014;39.006;2023-05-23T13:04:09;9.68;;;3.20;;
61635;SDS011;59438;45.014;39.006;2023-05-23T13:06:35;7.95;;;3.80;;
61635;SDS011;59438;45.014;39.006;2023-05-23T13:09:02;14.93;;;3.78;;
61635;SDS011;59438;45.014;39.006;2023-05-23T13:11:28;14.50;;;4.80;;
61635;SDS011;59438;45.014;39.006;2023-05-23T13:13:55;11.02;;;3.40;;
61635;SDS011;59438;45.014;39.006;2023-05-23T13:16:21;9.45;;;3.58;;
61635;SDS011;59438;45.014;39.006;2023-05-23T13:18:47;8.48;;;2.88;;
61635;SDS011;59438;45.014;39.006;2023-05-23T13:21:15;10.32;;;2.72;;
61635;SDS011;59438;45.014;39.006;2023-05-23T13:23:42;7.82;;;2.85;;
61635;SDS011;59438;45.014;39.006;2023-05-23T13:26:08;6.95;;;2.83;;
61635;SDS011;59438;45.014;39.006;2023-05-23T13:28:34;8.52;;;3.33;;
61635;SDS011;59438;45.014;39.006;2023-05-23T13:31:01;8.55;;;3.30;;
61635;SDS011;59438;45.014;39.006;2023-05-23T13:33:27;6.68;;;3.03;;
61635;SDS011;59438;45.014;39.006;2023-05-23T13:35:53;8.13;;;3.05;;
61635;SDS011;59438;45.014;39.006;2023-05-23T13:38:21;11.90;;;3.97;;
61635;SDS011;59438;45.014;39.006;2023-05-23T13:40:48;6.90;;;3.20;;
61635;SDS011;59438;45.014;39.006;2023-05-23T13:43:14;7.93;;;3.17;;
61635;SDS011;59438;45.014;39.006;2023-05-23T13:45:40;6.50;;;2.60;;
61635;SDS011;59438;45.014;39.006;2023-05-23T13:48:06;6.75;;;2.92;;
61635;SDS011;59438;45.014;39.006;2023-05-23T13:50:33;6.82;;;2.88;;
61635;SDS011;59438;45.014;39.006;2023-05-23T13:52:59;8.52;;;2.80;;
61635;SDS011;59438;45.014;39.006;2023-05-23T13:55:27;8.35;;;2.75;;
61635;SDS011;59438;45.014;39.006;2023-05-23T13:57:53;10.07;;;2.80;;
61635;SDS011;59438;45.014;39.006;2023-05-23T14:00:20;6.18;;;2.50;;
61635;SDS011;59438;45.014;39.006;2023-05-23T14:02:46;12.85;;;3.10;;
61635;SDS011;59438;45.014;39.006;2023-05-23T14:05:12;6.55;;;2.50;;
61635;SDS011;59438;45.014;39.006;2023-05-23T14:07:39;7.93;;;2.60;;
61635;SDS011;59438;45.014;39.006;2023-05-23T14:10:06;7.30;;;3.20;;
61635;SDS011;59438;45.014;39.006;2023-05-23T14:12:34;11.82;;;2.90;;
61635;SDS011;59438;45.014;39.006;2023-05-23T14:15:01;8.20;;;3.08;;
61635;SDS011;59438;45.014;39.006;2023-05-23T14:17:27;8.38;;;2.70;;
61635;SDS011;59438;45.014;39.006;2023-05-23T14:19:53;7.18;;;2.58;;
61635;SDS011;59438;45.014;39.006;2023-05-23T14:22:20;6.50;;;2.80;;
61635;SDS011;59438;45.014;39.006;2023-05-23T14:24:46;8.55;;;2.40;;
61635;SDS011;59438;45.014;39.006;2023-05-23T14:27:12;9.82;;;2.67;;
61635;SDS011;59438;45.014;39.006;2023-05-23T14:29:40;12.45;;;2.92;;
61635;SDS011;59438;45.014;39.006;2023-05-23T14:32:06;6.50;;;2.75;;